Time;durP1;ratioP1;P1;durP2;ratioP2;P2;SDS_P1;SDS_P2;PMS_P1;PMS_P2;Temp;Humidity;BMP_temperature;BMP_pressure;BME280_temperature;BME280_humidity;BME280_pressure;Samples;Min_cycle;Max_cycle;Signal;HPM_P1;HPM_P2
2022/09/23 00:01:57;;;;;;;0.40;0.40;;;6.80;99.90;;;;;;5035713;28;20909;-71
2022/09/23 00:04:45;;;;;;;0.40;0.40;;;6.80;99.90;;;;;;5035912;28;20801;-71
2022/09/23 00:07:33;;;;;;;0.50;0.50;;;6.70;99.90;;;;;;5034633;28;20441;-71
2022/09/23 00:10:22;;;;;;;0.40;0.40;;;6.70;99.90;;;;;;5035541;28;20425;-71
2022/09/23 00:13:10;;;;;;;0.40;0.40;;;6.70;99.90;;;;;;5035518;28;20551;-71
2022/09/23 00:16:02;;;;;;;0.40;0.40;;;6.60;99.90;;;;;;5035751;28;20448;-71
2022/09/23 00:18:52;;;;;;;0.40;0.40;;;6.60;99.90;;;;;;5036024;28;20567;-71
2022/09/23 00:21:41;;;;;;;0.40;0.40;;;6.60;99.90;;;;;;5035314;28;20425;-71
2022/09/23 00:24:31;;;;;;;0.40;0.40;;;6.60;99.90;;;;;;5036888;28;20467;-71
2022/09/23 00:30:12;;;;;;;1.03;1.03;;;6.60;99.90;;;;;;4960527;28;20532;-67
2022/09/23 00:33:00;;;;;;;0.40;0.40;;;6.60;99.90;;;;;;4957559;29;20519;-67
2022/09/23 00:35:49;;;;;;;0.50;0.50;;;6.60;99.90;;;;;;4958520;28;21003;-67
2022/09/23 00:38:37;;;;;;;0.40;0.40;;;6.60;99.90;;;;;;4957838;29;21024;-67
2022/09/23 00:41:26;;;;;;;0.40;0.40;;;6.50;99.90;;;;;;4957886;28;20433;-67
2022/09/23 00:44:43;;;;;;;0.93;0.93;;;6.50;99.90;;;;;;4958036;28;21027;-67
2022/09/23 00:47:35;;;;;;;0.50;0.50;;;6.40;99.90;;;;;;4957121;29;20490;-67
2022/09/23 00:50:28;;;;;;;0.40;0.40;;;6.40;99.90;;;;;;4956470;28;20425;-67
2022/09/23 00:53:22;;;;;;;0.40;0.40;;;6.50;99.90;;;;;;4969683;28;20566;-67
2022/09/23 00:56:11;;;;;;;0.50;0.50;;;6.40;99.90;;;;;;4976721;28;20546;-67
2022/09/23 00:59:00;;;;;;;0.50;0.50;;;6.40;99.90;;;;;;4976796;28;20471;-67
2022/09/23 01:01:49;;;;;;;0.47;0.47;;;6.40;99.90;;;;;;4976507;28;20451;-67
2022/09/23 01:04:38;;;;;;;0.50;0.50;;;6.40;99.90;;;;;;4980849;28;20520;-67
2022/09/23 01:07:26;;;;;;;0.50;0.50;;;6.30;99.90;;;;;;4968880;28;21050;-67
2022/09/23 01:10:17;;;;;;;4.13;3.90;;;6.30;99.90;;;;;;4975857;28;21027;-67
2022/09/23 01:13:17;;;;;;;0.40;0.40;;;6.30;99.90;;;;;;4975834;28;20471;-67
2022/09/23 01:16:10;;;;;;;0.40;0.40;;;6.30;99.90;;;;;;4976292;28;20932;-68
2022/09/23 01:19:09;;;;;;;0.43;0.43;;;6.30;99.90;;;;;;4975964;28;20525;-67
2022/09/23 01:22:04;;;;;;;0.50;0.50;;;6.30;99.90;;;;;;4976588;28;20873;-68
2022/09/23 01:25:09;;;;;;;0.40;0.40;;;6.30;99.90;;;;;;4975493;28;20428;-68
2022/09/23 01:28:18;;;;;;;0.43;0.43;;;6.20;99.90;;;;;;4980674;28;20545;-68
2022/09/23 01:31:14;;;;;;;0.40;0.40;;;6.20;99.90;;;;;;4995310;28;20462;-68
2022/09/23 01:34:10;;;;;;;0.40;0.40;;;6.30;99.90;;;;;;4995718;28;20463;-68
2022/09/23 01:37:07;;;;;;;0.40;0.40;;;6.30;99.90;;;;;;4995406;28;20466;-68
2022/09/23 01:40:03;;;;;;;0.40;0.40;;;6.20;99.90;;;;;;4995041;28;20795;-68
2022/09/23 01:42:56;;;;;;;0.40;0.40;;;6.20;99.90;;;;;;4994525;28;20962;-68
2022/09/23 01:45:47;;;;;;;0.50;0.50;;;6.20;99.90;;;;;;5001851;28;20521;-68
2022/09/23 01:48:44;;;;;;;0.50;0.50;;;6.10;99.90;;;;;;5000106;28;20447;-68
2022/09/23 01:51:37;;;;;;;0.50;0.50;;;6.10;99.90;;;;;;5001482;28;20516;-68
2022/09/23 01:54:30;;;;;;;0.50;0.50;;;6.10;99.90;;;;;;5001765;28;20922;-68
2022/09/23 01:57:25;;;;;;;0.40;0.40;;;6.10;99.90;;;;;;5002052;28;20750;-68
2022/09/23 02:00:16;;;;;;;0.40;0.40;;;6.10;99.90;;;;;;5000162;28;20543;-68
2022/09/23 02:03:09;;;;;;;0.50;0.50;;;6.10;99.90;;;;;;5000721;28;20418;-68
2022/09/23 02:06:02;;;;;;;0.50;0.50;;;6.10;99.90;;;;;;5000873;28;20517;-68
2022/09/23 02:08:55;;;;;;;0.43;0.43;;;6.10;99.90;;;;;;4994363;28;20537;-67
2022/09/23 02:11:46;;;;;;;0.50;0.50;;;6.10;99.90;;;;;;4994243;28;20481;-68
2022/09/23 02:14:42;;;;;;;0.40;0.40;;;6.10;99.90;;;;;;4994580;28;20462;-67
2022/09/23 02:17:38;;;;;;;0.50;0.50;;;6.10;99.90;;;;;;4994783;28;20513;-68
2022/09/23 02:20:30;;;;;;;0.50;0.50;;;6.00;99.90;;;;;;4994018;28;20478;-67
2022/09/23 02:23:24;;;;;;;0.40;0.40;;;6.00;99.90;;;;;;4994439;28;20522;-67
2022/09/23 02:26:19;;;;;;;0.40;0.40;;;6.00;99.90;;;;;;4994636;28;20427;-67
2022/09/23 02:29:18;;;;;;;0.50;0.50;;;5.90;99.90;;;;;;4994571;28;20494;-67
2022/09/23 02:32:15;;;;;;;0.40;0.40;;;5.80;99.90;;;;;;4995037;28;20454;-67
2022/09/23 02:35:13;;;;;;;0.50;0.50;;;5.70;99.90;;;;;;4994083;28;20507;-67
2022/09/23 02:38:11;;;;;;;0.40;0.40;;;5.60;99.90;;;;;;4993859;28;20537;-67
2022/09/23 02:41:10;;;;;;;0.40;0.40;;;5.70;99.90;;;;;;4993994;28;20505;-67
2022/09/23 02:44:03;;;;;;;0.40;0.40;;;5.60;99.90;;;;;;4994412;28;20510;-67
2022/09/23 02:46:52;;;;;;;0.40;0.40;;;5.60;99.90;;;;;;4994500;28;20431;-67
2022/09/23 02:49:41;;;;;;;0.40;0.40;;;5.70;99.90;;;;;;4993808;28;20443;-67
2022/09/23 02:52:29;;;;;;;0.40;0.40;;;5.70;99.90;;;;;;4994099;28;20518;-67
2022/09/23 02:55:22;;;;;;;0.40;0.40;;;5.70;99.90;;;;;;4994262;28;20490;-67
2022/09/23 02:58:13;;;;;;;0.70;0.70;;;5.70;99.90;;;;;;4994316;28;20567;-67
2022/09/23 03:01:09;;;;;;;0.40;0.40;;;5.60;99.90;;;;;;4994927;28;20454;-67
2022/09/23 03:04:08;;;;;;;0.40;0.40;;;5.70;99.90;;;;;;4993319;28;20434;-66
2022/09/23 03:07:01;;;;;;;0.40;0.40;;;5.70;99.90;;;;;;4994652;28;20521;-67
2022/09/23 03:09:56;;;;;;;0.60;0.60;;;5.60;99.90;;;;;;4992620;28;20875;-67
2022/09/23 03:12:52;;;;;;;0.40;0.40;;;5.70;99.90;;;;;;4993066;28;20438;-67
2022/09/23 03:15:51;;;;;;;0.40;0.40;;;5.70;99.90;;;;;;4993930;28;20438;-67
2022/09/23 03:18:42;;;;;;;0.40;0.40;;;5.60;99.90;;;;;;4993571;28;20538;-67
2022/09/23 03:21:37;;;;;;;0.40;0.40;;;5.60;99.90;;;;;;4994191;28;20458;-67
2022/09/23 03:24:26;;;;;;;0.40;0.40;;;5.60;99.90;;;;;;4993338;28;20492;-67
2022/09/23 03:27:18;;;;;;;0.50;0.50;;;5.60;99.90;;;;;;4993546;28;20431;-67
2022/09/23 03:30:08;;;;;;;0.40;0.40;;;5.60;99.90;;;;;;4992182;28;20426;-67
2022/09/23 03:32:59;;;;;;;0.40;0.40;;;5.60;99.90;;;;;;4993052;28;20435;-67
2022/09/23 03:39:05;;;;;;;0.40;0.40;;;5.50;99.90;;;;;;4993631;28;20982;-67
2022/09/23 03:41:56;;;;;;;0.40;0.40;;;5.50;99.90;;;;;;4992716;28;20439;-67
2022/09/23 03:44:46;;;;;;;0.40;0.40;;;5.50;99.90;;;;;;4993918;28;20419;-67
2022/09/23 03:47:35;;;;;;;0.50;0.50;;;5.40;99.90;;;;;;4993200;28;20429;-67
2022/09/23 03:50:24;;;;;;;0.40;0.40;;;5.40;99.90;;;;;;4993709;28;20431;-68
2022/09/23 03:53:13;;;;;;;0.40;0.40;;;5.50;99.90;;;;;;4993447;28;20462;-67
2022/09/23 03:56:01;;;;;;;0.40;0.40;;;5.40;99.90;;;;;;4993385;28;20469;-67
2022/09/23 03:58:49;;;;;;;0.47;0.47;;;5.40;99.90;;;;;;4993484;28;20438;-67
2022/09/23 04:01:37;;;;;;;0.40;0.40;;;5.40;99.90;;;;;;4992329;28;21162;-67
2022/09/23 04:04:26;;;;;;;0.40;0.40;;;5.50;99.90;;;;;;4993544;28;20416;-67
2022/09/23 04:07:16;;;;;;;0.40;0.40;;;5.40;99.90;;;;;;4992703;28;20447;-67
2022/09/23 04:10:06;;;;;;;0.40;0.40;;;5.40;99.90;;;;;;4991645;28;20561;-67
2022/09/23 04:12:54;;;;;;;0.40;0.40;;;5.40;99.90;;;;;;4992771;28;20510;-67
2022/09/23 04:15:42;;;;;;;0.40;0.40;;;5.40;99.90;;;;;;4993583;28;20462;-67
2022/09/23 04:18:30;;;;;;;0.40;0.40;;;5.40;99.90;;;;;;4993368;28;20497;-67
2022/09/23 04:21:18;;;;;;;0.40;0.40;;;5.50;99.90;;;;;;4992571;28;20518;-67
2022/09/23 04:24:08;;;;;;;0.40;0.40;;;5.40;99.90;;;;;;4996035;28;20419;-67
2022/09/23 04:26:57;;;;;;;0.50;0.50;;;5.40;99.90;;;;;;4997589;28;20518;-67
2022/09/23 04:29:45;;;;;;;0.40;0.40;;;5.40;99.90;;;;;;4996316;28;20525;-67
2022/09/23 04:32:33;;;;;;;0.40;0.40;;;5.40;99.90;;;;;;4996937;28;20827;-67
2022/09/23 04:35:21;;;;;;;0.40;0.40;;;5.40;99.90;;;;;;4996730;28;21097;-67
2022/09/23 04:38:10;;;;;;;0.40;0.40;;;5.40;99.90;;;;;;4996985;28;20478;-67
2022/09/23 04:41:00;;;;;;;0.40;0.40;;;5.40;99.90;;;;;;4996055;28;20423;-67
2022/09/23 04:43:48;;;;;;;0.40;0.40;;;5.40;99.90;;;;;;4996563;28;20569;-67
2022/09/23 04:46:37;;;;;;;0.40;0.40;;;5.40;99.90;;;;;;4996423;28;20427;-67
2022/09/23 04:49:26;;;;;;;0.50;0.50;;;5.40;99.90;;;;;;4995604;28;20518;-67
2022/09/23 04:52:14;;;;;;;0.50;0.50;;;5.20;99.90;;;;;;4996550;28;20538;-67
2022/09/23 04:55:02;;;;;;;0.40;0.40;;;5.20;99.90;;;;;;4997145;28;20529;-67
2022/09/23 04:57:53;;;;;;;0.40;0.40;;;5.30;99.90;;;;;;4996370;28;20493;-67
2022/09/23 05:00:41;;;;;;;0.50;0.50;;;5.20;99.90;;;;;;4996664;28;20438;-67
2022/09/23 05:03:33;;;;;;;0.40;0.40;;;5.20;99.90;;;;;;4995652;28;20434;-67
2022/09/23 05:06:22;;;;;;;0.40;0.40;;;5.20;99.90;;;;;;4995518;28;20514;-67
2022/09/23 05:09:14;;;;;;;0.50;0.50;;;5.30;99.90;;;;;;4995498;28;21001;-67
2022/09/23 05:12:02;;;;;;;0.40;0.40;;;5.40;99.90;;;;;;4995120;28;20424;-67
2022/09/23 05:14:51;;;;;;;0.50;0.50;;;5.40;99.90;;;;;;4994601;28;20549;-67
2022/09/23 05:17:41;;;;;;;0.40;0.40;;;5.40;99.90;;;;;;4995441;28;20485;-67
2022/09/23 05:20:29;;;;;;;0.40;0.40;;;5.50;99.90;;;;;;4994772;28;20426;-67
2022/09/23 05:23:17;;;;;;;0.40;0.40;;;5.50;99.90;;;;;;4995673;28;21034;-68
2022/09/23 05:26:08;;;;;;;0.40;0.40;;;5.50;99.90;;;;;;4996436;28;20801;-68
2022/09/23 05:28:57;;;;;;;0.40;0.40;;;5.60;99.90;;;;;;4994675;28;20459;-67
2022/09/23 05:31:46;;;;;;;0.40;0.40;;;5.70;99.90;;;;;;4996430;28;20463;-67
2022/09/23 05:34:34;;;;;;;0.40;0.40;;;5.90;99.90;;;;;;4995084;28;20474;-67
2022/09/23 05:37:24;;;;;;;0.50;0.50;;;;;;;;;;4978736;28;20552;-67
2022/09/23 05:40:12;;;;;;;0.50;0.50;;;5.80;99.90;;;;;;4973982;28;20807;-67
2022/09/23 05:43:00;;;;;;;0.50;0.50;;;6.00;99.90;;;;;;4983649;28;20456;-67
2022/09/23 05:45:48;;;;;;;0.40;0.40;;;6.00;99.90;;;;;;4975936;28;20483;-68
2022/09/23 05:48:39;;;;;;;0.50;0.50;;;6.00;99.90;;;;;;4973674;28;20495;-68
2022/09/23 05:51:27;;;;;;;0.40;0.40;;;6.00;99.90;;;;;;4974697;28;20423;-67
2022/09/23 05:54:18;;;;;;;0.40;0.40;;;6.10;99.90;;;;;;4976282;28;20442;-67
2022/09/23 05:57:06;;;;;;;0.70;0.70;;;6.20;99.90;;;;;;4975773;28;20423;-67
2022/09/23 05:59:55;;;;;;;0.40;0.40;;;6.20;99.90;;;;;;4974981;28;20427;-68
2022/09/23 06:02:43;;;;;;;0.40;0.40;;;6.30;99.90;;;;;;4972404;28;20982;-67
2022/09/23 06:05:32;;;;;;;0.50;0.50;;;6.30;99.90;;;;;;4982851;28;20951;-69
2022/09/23 06:08:21;;;;;;;0.50;0.50;;;6.40;99.90;;;;;;4976329;28;20483;-68
2022/09/23 06:11:11;;;;;;;0.40;0.40;;;6.50;99.90;;;;;;4977402;28;20482;-68
2022/09/23 06:14:00;;;;;;;0.70;0.70;;;6.50;99.90;;;;;;4976634;28;20857;-69
2022/09/23 06:16:49;;;;;;;0.40;0.40;;;6.60;99.90;;;;;;4976798;28;20459;-69
2022/09/23 06:19:37;;;;;;;0.50;0.50;;;6.70;99.90;;;;;;4975088;28;20475;-68
2022/09/23 06:22:26;;;;;;;0.50;0.50;;;6.70;99.90;;;;;;4976204;28;20470;-69
2022/09/23 06:25:15;;;;;;;0.40;0.40;;;6.80;99.90;;;;;;4974464;28;20483;-68
2022/09/23 06:28:03;;;;;;;0.40;0.40;;;6.80;99.90;;;;;;4975068;28;20541;-67
2022/09/23 06:30:57;;;;;;;0.70;0.70;;;6.90;99.90;;;;;;4975064;28;20912;-68
2022/09/23 06:33:46;;;;;;;0.40;0.40;;;7.00;99.90;;;;;;4975146;28;20978;-68
2022/09/23 06:36:34;;;;;;;0.40;0.40;;;7.10;99.90;;;;;;4975744;28;20522;-68
2022/09/23 06:39:32;;;;;;;0.40;0.40;;;7.20;99.90;;;;;;4974444;28;20447;-68
2022/09/23 06:42:20;;;;;;;0.40;0.40;;;7.30;99.90;;;;;;4974544;28;20467;-68
2022/09/23 06:45:13;;;;;;;0.60;0.60;;;7.50;99.90;;;;;;4973334;28;21011;-68
2022/09/23 06:48:07;;;;;;;0.40;0.40;;;7.60;99.90;;;;;;4974619;28;20475;-68
2022/09/23 06:51:01;;;;;;;0.40;0.40;;;7.70;99.90;;;;;;4975302;28;20531;-70
2022/09/23 06:53:49;;;;;;;0.40;0.40;;;7.80;99.90;;;;;;4975732;28;20438;-68
2022/09/23 06:56:39;;;;;;;0.50;0.50;;;7.90;99.90;;;;;;4973323;28;20554;-68
2022/09/23 06:59:27;;;;;;;0.40;0.40;;;8.00;99.90;;;;;;4974545;28;20924;-68
2022/09/23 07:02:15;;;;;;;0.50;0.50;;;8.20;99.90;;;;;;4974340;28;20844;-67
2022/09/23 07:05:04;;;;;;;0.40;0.40;;;8.20;99.90;;;;;;4976881;28;20968;-69
2022/09/23 07:07:53;;;;;;;0.40;0.40;;;8.40;99.90;;;;;;4974305;28;20534;-68
2022/09/23 07:10:41;;;;;;;0.40;0.40;;;8.40;99.90;;;;;;4975233;28;20447;-68
2022/09/23 07:13:32;;;;;;;0.40;0.40;;;8.50;99.90;;;;;;4965431;28;20836;-68
2022/09/23 07:16:20;;;;;;;0.50;0.50;;;8.70;99.90;;;;;;4969150;28;20463;-70
2022/09/23 07:19:09;;;;;;;0.40;0.40;;;8.80;99.90;;;;;;4969972;28;20460;-68
2022/09/23 07:21:57;;;;;;;0.50;0.50;;;8.80;99.90;;;;;;4962692;28;20444;-68
2022/09/23 07:24:46;;;;;;;0.50;0.50;;;8.90;99.90;;;;;;4969324;28;20428;-68
2022/09/23 07:27:34;;;;;;;0.40;0.40;;;9.10;99.90;;;;;;4974543;28;20937;-68
2022/09/23 07:30:23;;;;;;;0.40;0.40;;;9.00;99.90;;;;;;4975069;28;20440;-68
2022/09/23 07:33:13;;;;;;;1.80;1.27;;;9.30;99.90;;;;;;4973572;28;20442;-68
2022/09/23 07:36:19;;;;;;;0.40;0.40;;;9.40;99.90;;;;;;4974952;28;20463;-69
2022/09/23 07:39:08;;;;;;;0.40;0.40;;;9.50;99.90;;;;;;4974803;28;20476;-68
2022/09/23 07:41:56;;;;;;;0.60;0.60;;;9.60;99.90;;;;;;4974530;28;20447;-68
2022/09/23 07:44:45;;;;;;;0.40;0.40;;;9.70;99.90;;;;;;4974980;28;20463;-68
2022/09/23 07:47:35;;;;;;;0.40;0.40;;;9.80;99.90;;;;;;4973854;28;20940;-68
2022/09/23 07:50:23;;;;;;;0.40;0.40;;;9.90;99.90;;;;;;4975546;28;20432;-68
2022/09/23 07:53:12;;;;;;;0.40;0.40;;;10.00;99.90;;;;;;4975537;28;20723;-68
2022/09/23 07:56:00;;;;;;;0.50;0.50;;;10.20;99.90;;;;;;4975251;28;21034;-68
2022/09/23 07:58:58;;;;;;;0.43;0.43;;;10.30;99.90;;;;;;4976424;28;21039;-69
2022/09/23 08:01:51;;;;;;;0.40;0.40;;;10.40;99.90;;;;;;4974446;28;20459;-68
2022/09/23 08:04:42;;;;;;;0.70;0.70;;;10.50;99.90;;;;;;4978440;28;20435;-68
2022/09/23 08:07:33;;;;;;;0.40;0.40;;;10.70;99.90;;;;;;4978701;28;20447;-68
2022/09/23 08:10:21;;;;;;;0.40;0.40;;;10.80;99.90;;;;;;4978466;28;20424;-69
2022/09/23 08:13:10;;;;;;;0.50;0.50;;;10.90;99.90;;;;;;4978976;28;20424;-69
2022/09/23 08:15:58;;;;;;;0.40;0.40;;;11.00;99.90;;;;;;4977214;28;20952;-68
2022/09/23 08:18:46;;;;;;;0.40;0.40;;;11.10;99.90;;;;;;4979248;28;20445;-68
2022/09/23 08:21:38;;;;;;;0.40;0.40;;;11.20;99.90;;;;;;4980364;28;20519;-68
2022/09/23 08:24:26;;;;;;;0.40;0.40;;;11.30;99.90;;;;;;4982814;28;20463;-68
2022/09/23 08:27:15;;;;;;;0.50;0.50;;;11.40;99.90;;;;;;4979819;28;20574;-68
2022/09/23 08:30:03;;;;;;;0.40;0.40;;;11.50;99.90;;;;;;4979953;28;20435;-68
2022/09/23 08:32:51;;;;;;;0.40;0.40;;;11.60;99.90;;;;;;4979797;28;20435;-70
2022/09/23 08:35:40;;;;;;;0.50;0.50;;;11.60;99.90;;;;;;4978515;28;20535;-68
2022/09/23 08:38:29;;;;;;;0.60;0.60;;;11.80;99.90;;;;;;4981431;28;20467;-68
2022/09/23 08:41:25;;;;;;;0.40;0.40;;;11.90;99.90;;;;;;4980395;28;20552;-69
2022/09/23 08:44:18;;;;;;;0.50;0.50;;;12.00;99.90;;;;;;4980371;28;20518;-71
2022/09/23 08:47:15;;;;;;;0.40;0.40;;;12.10;99.90;;;;;;4969427;28;20455;-69
2022/09/23 08:50:08;;;;;;;0.60;0.60;;;12.20;99.90;;;;;;4970637;28;20594;-68
2022/09/23 08:52:59;;;;;;;0.40;0.40;;;12.40;99.90;;;;;;4973940;28;20445;-67
2022/09/23 08:55:52;;;;;;;0.80;0.80;;;12.50;99.90;;;;;;4975720;28;20490;-69
2022/09/23 08:58:53;;;;;;;0.40;0.40;;;12.60;99.90;;;;;;4970339;28;20984;-67
2022/09/23 09:01:44;;;;;;;0.47;0.47;;;12.70;99.90;;;;;;4957172;28;20460;-69
2022/09/23 09:04:41;;;;;;;0.40;0.40;;;12.80;99.90;;;;;;4977044;28;20451;-67
2022/09/23 09:07:33;;;;;;;0.40;0.40;;;13.00;99.90;;;;;;4977295;28;20498;-70
2022/09/23 09:10:33;;;;;;;0.40;0.40;;;13.00;99.90;;;;;;4972367;28;20437;-67
2022/09/23 09:13:31;;;;;;;0.40;0.40;;;13.10;99.90;;;;;;4960898;28;20428;-70
2022/09/23 09:16:38;;;;;;;0.50;0.50;;;13.30;99.90;;;;;;4976009;28;20439;-67
2022/09/23 09:19:54;;;;;;;0.40;0.40;;;13.40;99.90;;;;;;4975070;28;20448;-69
2022/09/23 09:22:56;;;;;;;1.23;1.13;;;13.50;99.90;;;;;;4969658;28;20452;-68
2022/09/23 09:25:48;;;;;;;0.60;0.60;;;13.70;99.90;;;;;;4958070;28;20432;-67
2022/09/23 09:28:42;;;;;;;0.40;0.40;;;13.80;99.90;;;;;;4957186;28;20504;-67
2022/09/23 09:31:34;;;;;;;0.40;0.40;;;14.00;99.90;;;;;;4957765;28;20491;-67
2022/09/23 09:34:29;;;;;;;0.40;0.40;;;14.20;99.90;;;;;;4956518;29;20429;-69
2022/09/23 09:37:24;;;;;;;0.50;0.50;;;14.30;99.90;;;;;;4957292;28;20472;-68
2022/09/23 09:40:15;;;;;;;0.40;0.40;;;14.50;99.90;;;;;;4955458;28;20528;-68
2022/09/23 09:43:04;;;;;;;0.40;0.40;;;14.60;99.90;;;;;;4956496;28;20452;-67
2022/09/23 09:46:03;;;;;;;0.40;0.40;;;14.60;99.90;;;;;;4954797;29;20512;-68
2022/09/23 09:48:58;;;;;;;0.40;0.40;;;14.70;99.90;;;;;;4956584;28;20531;-68
2022/09/23 09:51:46;;;;;;;0.43;0.43;;;14.70;99.90;;;;;;4956218;29;20424;-68
2022/09/23 09:54:35;;;;;;;0.40;0.40;;;14.70;99.90;;;;;;4956057;28;20437;-69
2022/09/23 09:57:32;;;;;;;0.40;0.40;;;14.80;99.90;;;;;;4955046;29;20540;-68
2022/09/23 10:00:40;;;;;;;0.40;0.40;;;14.90;99.90;;;;;;4954938;28;20448;-68
2022/09/23 10:03:38;;;;;;;0.40;0.40;;;15.00;99.90;;;;;;4954841;29;20433;-69
2022/09/23 10:06:29;;;;;;;0.40;0.40;;;15.20;99.90;;;;;;4954184;29;20523;-68
2022/09/23 10:09:18;;;;;;;0.50;0.50;;;15.30;99.90;;;;;;4953810;28;20825;-70
2022/09/23 10:12:16;;;;;;;0.40;0.40;;;15.40;99.90;;;;;;4955591;28;20584;-69
2022/09/23 10:15:17;;;;;;;0.40;0.40;;;15.50;99.90;;;;;;4954935;28;20976;-69
2022/09/23 10:18:18;;;;;;;0.40;0.40;;;15.60;99.90;;;;;;4955857;29;20284;-68
2022/09/23 10:21:12;;;;;;;0.40;0.40;;;15.70;99.90;;;;;;4959016;28;20425;-69
2022/09/23 10:24:03;;;;;;;0.40;0.40;;;15.90;99.90;;;;;;4967279;29;20760;-68
2022/09/23 10:26:56;;;;;;;0.40;0.40;;;16.00;99.90;;;;;;4969618;28;20268;-68
2022/09/23 10:29:50;;;;;;;0.40;0.40;;;16.10;99.90;;;;;;4986638;28;20235;-71
2022/09/23 10:32:44;;;;;;;0.40;0.40;;;16.30;99.90;;;;;;4983227;28;20264;-70
2022/09/23 10:35:33;;;;;;;0.40;0.40;;;16.40;99.90;;;;;;4986956;28;20488;-69
2022/09/23 10:38:23;;;;;;;0.40;0.40;;;16.60;99.90;;;;;;4981984;28;20228;-69
2022/09/23 10:47:58;;;;;;;0.40;0.40;;;16.90;99.90;;;;;;4985814;28;20243;-69
2022/09/23 10:50:49;;;;;;;0.50;0.50;;;17.00;99.90;;;;;;4980426;28;20208;-69
2022/09/23 10:53:48;;;;;;;0.40;0.40;;;17.10;99.90;;;;;;4978532;28;20215;-70
2022/09/23 10:56:43;;;;;;;0.40;0.40;;;17.10;99.90;;;;;;4964204;28;20765;-70
2022/09/23 10:59:48;;;;;;;0.60;0.60;;;17.20;99.90;;;;;;4955004;28;20706;-71
2022/09/23 11:03:08;;;;;;;0.40;0.40;;;17.30;99.90;;;;;;4955158;28;20231;-70
2022/09/23 11:06:10;;;;;;;1.17;0.73;;;17.30;99.90;;;;;;4973690;28;20321;-68
2022/09/23 11:09:13;;;;;;;0.40;0.40;;;17.40;99.90;;;;;;4974502;28;20794;-68
2022/09/23 11:12:14;;;;;;;4.05;3.85;;;17.60;99.90;;;;;;4973127;28;20302;-68
2022/09/23 11:15:17;;;;;;;0.40;0.40;;;17.80;99.90;;;;;;4978686;28;20335;-70
2022/09/23 11:18:50;;;;;;;0.40;0.40;;;18.10;99.90;;;;;;4972538;28;20243;-69
2022/09/23 11:21:51;;;;;;;0.40;0.40;;;18.10;99.90;;;;;;4954341;28;20219;-69
2022/09/23 11:25:05;;;;;;;0.40;0.40;;;18.00;99.90;;;;;;4971863;28;20235;-70
2022/09/23 11:28:09;;;;;;;0.40;0.40;;;17.90;99.90;;;;;;4972704;28;20234;-70
2022/09/23 11:31:08;;;;;;;0.40;0.40;;;17.80;99.90;;;;;;4971904;28;20340;-68
2022/09/23 11:34:10;;;;;;;0.68;0.68;;;17.60;99.90;;;;;;4972250;28;20212;-72
2022/09/23 11:37:04;;;;;;;0.40;0.40;;;17.30;99.90;;;;;;4971698;28;20812;-69
2022/09/23 11:40:01;;;;;;;0.40;0.40;;;17.20;99.90;;;;;;4971886;28;20278;-69
2022/09/23 11:42:57;;;;;;;0.40;0.40;;;17.10;99.90;;;;;;4953031;29;20343;-70
2022/09/23 11:45:50;;;;;;;0.40;0.40;;;17.10;99.90;;;;;;4954042;28;20293;-71
2022/09/23 11:48:43;;;;;;;0.40;0.40;;;17.10;99.90;;;;;;4954252;28;20228;-69
2022/09/23 11:51:36;;;;;;;0.40;0.40;;;17.10;99.90;;;;;;4953676;28;20572;-68
2022/09/23 11:54:31;;;;;;;0.40;0.40;;;17.10;99.90;;;;;;4953777;28;20326;-69
2022/09/23 11:57:29;;;;;;;0.40;0.40;;;17.20;99.90;;;;;;4964380;28;20685;-71
2022/09/23 12:00:37;;;;;;;0.40;0.40;;;17.20;99.90;;;;;;4971878;28;20196;-69
2022/09/23 12:03:37;;;;;;;0.40;0.40;;;17.30;99.90;;;;;;4971876;28;20212;-68
2022/09/23 12:06:38;;;;;;;0.40;0.40;;;17.40;99.90;;;;;;4954690;28;20217;-69
2022/09/23 12:09:32;;;;;;;0.40;0.40;;;17.50;99.90;;;;;;4952737;28;20307;-71
2022/09/23 12:12:49;;;;;;;0.40;0.40;;;17.70;99.90;;;;;;4953362;29;20204;-69
2022/09/23 12:15:51;;;;;;;0.40;0.40;;;17.90;99.90;;;;;;4953552;28;20332;-68
2022/09/23 12:18:52;;;;;;;0.40;0.40;;;18.10;99.90;;;;;;4952990;29;20646;-71
2022/09/23 12:21:59;;;;;;;0.40;0.40;;;18.40;99.90;;;;;;4953474;28;20584;-68
2022/09/23 12:24:55;;;;;;;0.40;0.40;;;18.90;99.90;;;;;;4953716;28;20711;-71
2022/09/23 12:27:49;;;;;;;0.40;0.40;;;19.50;99.90;;;;;;4953204;29;20546;-69
2022/09/23 12:30:39;;;;;;;0.40;0.40;;;19.60;99.90;;;;;;4952382;29;20738;-70
2022/09/23 12:33:31;;;;;;;0.40;0.40;;;19.80;99.10;;;;;;4952874;29;20205;-68
2022/09/23 12:36:26;;;;;;;0.40;0.40;;;19.90;98.40;;;;;;4953604;28;20237;-70
2022/09/23 12:39:17;;;;;;;0.50;0.50;;;19.90;97.20;;;;;;4951980;29;20315;-71
2022/09/23 12:42:18;;;;;;;0.40;0.40;;;20.00;96.40;;;;;;4953517;28;20216;-69
2022/09/23 12:45:34;;;;;;;0.40;0.40;;;20.00;96.40;;;;;;4955292;28;20294;-68
2022/09/23 12:48:45;;;;;;;0.40;0.40;;;20.20;96.80;;;;;;4956266;29;20603;-68
2022/09/23 12:51:35;;;;;;;0.40;0.40;;;20.20;97.00;;;;;;4956165;28;20204;-68
2022/09/23 12:54:24;;;;;;;0.40;0.40;;;20.30;97.50;;;;;;4956383;29;20252;-68
2022/09/23 12:57:13;;;;;;;0.40;0.40;;;20.40;97.90;;;;;;4965135;28;20276;-68
2022/09/23 13:00:23;;;;;;;0.40;0.40;;;20.60;96.60;;;;;;4974700;28;20329;-67
2022/09/23 13:09:28;;;;;;;0.45;0.45;;;21.20;92.80;;;;;;4973754;28;20732;-66
2022/09/23 13:12:21;;;;;;;0.40;0.40;;;21.60;93.50;;;;;;4977778;28;20400;-67
2022/09/23 13:15:17;;;;;;;0.40;0.40;;;21.90;93.00;;;;;;4977961;28;20200;-70
2022/09/23 13:18:45;;;;;;;0.50;0.50;;;22.10;92.00;;;;;;4977923;28;20260;-69
2022/09/23 13:21:59;;;;;;;0.40;0.40;;;22.10;92.60;;;;;;4977158;28;20259;-67
2022/09/23 13:24:53;;;;;;;0.40;0.40;;;21.70;91.50;;;;;;4977286;28;20236;-67
2022/09/23 13:27:46;;;;;;;0.40;0.40;;;21.50;92.20;;;;;;4977161;28;20381;-69
2022/09/23 13:30:34;;;;;;;0.40;0.40;;;21.60;92.40;;;;;;4977671;28;20689;-67
2022/09/23 13:33:29;;;;;;;0.40;0.40;;;21.80;91.40;;;;;;4976241;28;20208;-68
2022/09/23 13:36:19;;;;;;;0.40;0.40;;;21.50;90.80;;;;;;4976663;28;20696;-69
2022/09/23 13:39:14;;;;;;;0.40;0.40;;;21.30;90.40;;;;;;4975918;28;20294;-71
2022/09/23 13:42:04;;;;;;;0.40;0.40;;;21.30;89.90;;;;;;4973990;28;20211;-67
2022/09/23 13:44:54;;;;;;;0.40;0.40;;;22.10;90.80;;;;;;4976338;28;20267;-68
2022/09/23 13:47:44;;;;;;;0.40;0.40;;;23.90;85.60;;;;;;4975328;28;20697;-68
2022/09/23 13:50:37;;;;;;;0.40;0.40;;;24.00;86.40;;;;;;4977483;28;20193;-68
2022/09/23 13:53:28;;;;;;;0.40;0.40;;;24.70;83.30;;;;;;4976326;28;20258;-69
2022/09/23 13:56:16;;;;;;;0.40;0.40;;;24.30;82.30;;;;;;4976509;28;20701;-69
2022/09/23 13:59:22;;;;;;;0.40;0.40;;;23.90;82.90;;;;;;4976717;28;20287;-68
2022/09/23 14:02:12;;;;;;;0.40;0.40;;;23.00;82.90;;;;;;4975300;28;20207;-72
2022/09/23 14:05:11;;;;;;;0.40;0.40;;;22.50;84.20;;;;;;4975823;28;20207;-68
2022/09/23 14:08:01;;;;;;;0.40;0.35;;;22.50;85.70;;;;;;4976538;28;20220;-68
2022/09/23 14:10:50;;;;;;;0.40;0.40;;;22.40;84.40;;;;;;4976937;28;20203;-66
2022/09/23 14:13:42;;;;;;;1.20;1.10;;;22.30;84.20;;;;;;4976869;28;20214;-67
2022/09/23 14:16:31;;;;;;;0.40;0.40;;;22.20;82.60;;;;;;4975417;28;20266;-67
2022/09/23 14:19:22;;;;;;;0.40;0.40;;;22.50;79.90;;;;;;4975058;28;20244;-68
2022/09/23 14:22:23;;;;;;;0.40;0.40;;;23.30;80.20;;;;;;4975324;28;20208;-68
2022/09/23 14:25:16;;;;;;;0.40;0.40;;;24.00;79.10;;;;;;4975550;28;20200;-69
2022/09/23 14:28:04;;;;;;;0.40;0.40;;;23.80;76.90;;;;;;4975012;28;20708;-68
2022/09/23 14:30:56;;;;;;;0.40;0.40;;;23.20;76.60;;;;;;4975649;28;20207;-68
2022/09/23 14:33:45;;;;;;;0.40;0.40;;;22.70;77.20;;;;;;4974162;28;20280;-68
2022/09/23 14:39:41;;;;;;;0.40;0.40;;;21.20;78.80;;;;;;4973862;28;20223;-69
2022/09/23 14:42:39;;;;;;;0.40;0.40;;;20.80;83.70;;;;;;4974009;28;20200;-70
2022/09/23 14:45:33;;;;;;;0.40;0.40;;;20.70;85.60;;;;;;4973339;28;20686;-69
2022/09/23 14:48:24;;;;;;;0.40;0.40;;;20.60;87.70;;;;;;4972959;28;20716;-71
2022/09/23 14:51:12;;;;;;;0.40;0.40;;;20.60;86.70;;;;;;4972590;28;20816;-68
2022/09/23 14:54:35;;;;;;;0.40;0.40;;;20.40;88.00;;;;;;4972635;28;20200;-69
2022/09/23 14:57:28;;;;;;;0.40;0.40;;;20.30;87.30;;;;;;4972963;28;20338;-69
2022/09/23 15:00:20;;;;;;;0.40;0.40;;;20.10;90.00;;;;;;4973346;28;20220;-70
2022/09/23 15:03:14;;;;;;;0.40;0.40;;;19.80;90.10;;;;;;4972122;28;20771;-71
2022/09/23 15:06:08;;;;;;;0.40;0.40;;;19.70;89.70;;;;;;4955724;28;20256;-72
2022/09/23 15:08:56;;;;;;;0.40;0.40;;;19.50;89.70;;;;;;4957755;28;20315;-69
2022/09/23 15:11:44;;;;;;;0.40;0.40;;;19.40;91.00;;;;;;4973562;28;20210;-72
2022/09/23 15:14:36;;;;;;;0.40;0.40;;;19.50;91.00;;;;;;4973843;28;20247;-73
2022/09/23 15:17:32;;;;;;;2.30;1.42;;;19.40;91.50;;;;;;4974930;28;20195;-70
2022/09/23 15:20:24;;;;;;;0.40;0.40;;;19.40;91.70;;;;;;4973849;28;20234;-71
2022/09/23 15:23:33;;;;;;;0.40;0.40;;;19.30;91.60;;;;;;4973694;28;20204;-70
2022/09/23 15:26:23;;;;;;;0.40;0.40;;;19.10;92.20;;;;;;4973293;28;20208;-69
2022/09/23 15:29:11;;;;;;;0.40;0.40;;;19.00;92.90;;;;;;4986712;28;20234;-72
2022/09/23 15:32:00;;;;;;;0.40;0.40;;;18.90;93.30;;;;;;4992537;28;20303;-72